TimeEDT,TemperatureF,Dew PointF,Humidity,Sea Level PressureIn,VisibilityMPH,Wind Direction,Wind SpeedMPH,Gust SpeedMPH,PrecipitationIn,Events,Conditions,WindDirDegrees,DateUTC
12:14 AM,73.4,69.8,88,30.07,7.0,East,9.2,-,N/A,,Overcast,90,2013-08-07 04:14:00
12:21 AM,73.4,69.8,88,30.07,6.0,ESE,6.9,-,N/A,,Overcast,110,2013-08-07 04:21:00
12:38 AM,73.4,69.8,88,30.06,6.0,East,5.8,-,N/A,,Overcast,80,2013-08-07 04:38:00
12:48 AM,73.4,69.8,88,30.07,6.0,ESE,4.6,-,N/A,Thunderstorm,Overcast,110,2013-08-07 04:48:00
12:53 AM,73.0,70.0,90,30.02,6.0,East,8.1,-,N/A,Thunderstorm,Overcast,90,2013-08-07 04:53:00
1:02 AM,73.4,69.8,88,30.07,6.0,East,4.6,-,N/A,Thunderstorm,Overcast,100,2013-08-07 05:02:00
1:49 AM,73.4,71.6,94,30.06,4.0,Calm,Calm,-,0.00,,Mostly Cloudy,0,2013-08-07 05:49:00
1:53 AM,73.0,71.1,93,30.01,4.0,Calm,Calm,-,0.00,,Mostly Cloudy,0,2013-08-07 05:53:00
2:01 AM,73.4,71.6,94,30.06,5.0,Calm,Calm,-,N/A,,Mostly Cloudy,0,2013-08-07 06:01:00
2:21 AM,73.4,71.6,94,30.06,5.0,Calm,Calm,-,0.00,Rain,Light Rain,0,2013-08-07 06:21:00
2:53 AM,73.0,71.1,93,30.00,4.0,ENE,5.8,-,0.00,Rain,Light Rain,70,2013-08-07 06:53:00
3:02 AM,73.4,71.6,94,30.06,3.0,ENE,4.6,-,0.01,Rain-Thunderstorm,Light Rain,60,2013-08-07 07:02:00
3:17 AM,73.4,71.6,94,30.06,2.5,NE,3.5,-,0.06,Rain,Rain,50,2013-08-07 07:17:00
3:29 AM,71.6,71.6,100,30.06,3.0,East,4.6,-,0.09,Rain,Rain,80,2013-08-07 07:29:00
3:53 AM,72.0,70.0,93,30.02,4.0,NE,3.5,-,0.13,Rain,Rain,50,2013-08-07 07:53:00
4:53 AM,72.0,70.0,93,30.01,4.0,East,6.9,-,0.22,Rain,Rain,80,2013-08-07 08:53:00
5:53 AM,72.0,70.0,93,30.01,7.0,East,4.6,-,0.15,Rain,Light Rain,90,2013-08-07 09:53:00
6:23 AM,71.6,69.8,94,30.07,6.0,ESE,4.6,-,0.01,Rain-Thunderstorm,Light Rain,110,2013-08-07 10:23:00
6:38 AM,71.6,69.8,94,30.07,6.0,East,4.6,-,0.02,Rain,Light Rain,100,2013-08-07 10:38:00
6:45 AM,71.6,69.8,94,30.07,5.0,ESE,4.6,-,0.03,Rain,Light Rain,110,2013-08-07 10:45:00
6:53 AM,72.0,70.0,93,30.03,4.0,ESE,3.5,-,0.04,Rain,Rain,120,2013-08-07 10:53:00
7:15 AM,71.6,69.8,94,30.08,2.5,East,5.8,-,0.09,Rain-Thunderstorm,Rain,100,2013-08-07 11:15:00
7:25 AM,71.6,69.8,94,30.08,4.0,ESE,4.6,-,0.11,Rain-Thunderstorm,Rain,110,2013-08-07 11:25:00
7:44 AM,71.6,69.8,94,30.08,4.0,East,4.6,-,0.15,Rain-Thunderstorm,Rain,100,2013-08-07 11:44:00
7:51 AM,71.6,69.8,94,30.09,4.0,Calm,Calm,-,0.16,Rain,Rain,0,2013-08-07 11:51:00
7:53 AM,72.0,70.0,93,30.04,4.0,Calm,Calm,-,0.17,Rain,Rain,0,2013-08-07 11:53:00
8:15 AM,71.6,69.8,94,30.09,5.0,East,3.5,-,0.03,Rain-Thunderstorm,Light Rain,100,2013-08-07 12:15:00
8:36 AM,71.6,69.8,94,30.08,4.0,SE,4.6,-,0.06,Rain,Rain,130,2013-08-07 12:36:00
8:53 AM,72.0,71.1,97,30.05,3.0,Calm,Calm,-,0.09,Rain,Rain,0,2013-08-07 12:53:00
9:31 AM,73.4,71.6,94,30.09,5.0,South,4.6,-,0.05,Rain-Thunderstorm,Light Rain,190,2013-08-07 13:31:00
9:53 AM,73.0,71.1,93,30.05,4.0,Calm,Calm,-,0.07,Rain,Light Rain,0,2013-08-07 13:53:00
10:13 AM,73.4,71.6,94,30.10,2.5,South,4.6,-,0.04,Rain,Rain,180,2013-08-07 14:13:00
10:26 AM,73.4,71.6,94,30.10,2.0,South,4.6,-,0.08,Rain-Thunderstorm,Rain,180,2013-08-07 14:26:00
10:40 AM,73.4,71.6,94,30.10,2.5,South,4.6,-,0.12,Rain,Rain,170,2013-08-07 14:40:00
10:48 AM,73.4,71.6,94,30.10,2.0,South,5.8,-,0.15,Rain,Rain,180,2013-08-07 14:48:00
10:53 AM,73.0,71.1,93,30.06,1.8,South,5.8,-,0.18,Rain,Heavy Rain,170,2013-08-07 14:53:00
11:00 AM,73.4,71.6,94,30.11,1.5,South,5.8,-,0.03,Rain,Heavy Rain,170,2013-08-07 15:00:00
11:13 AM,73.4,71.6,94,30.11,1.0,South,8.1,-,0.16,Rain-Thunderstorm,Heavy Thunderstorms and Rain,170,2013-08-07 15:13:00
11:26 AM,73.4,71.6,94,30.11,2.0,SSW,4.6,-,0.27,Rain-Thunderstorm,Rain,200,2013-08-07 15:26:00
11:32 AM,73.4,71.6,94,30.11,2.5,South,6.9,-,0.28,Rain,Rain,190,2013-08-07 15:32:00
11:42 AM,73.4,71.6,94,30.12,2.0,WSW,15.0,19.6,0.34,Rain-Thunderstorm,Rain,250,2013-08-07 15:42:00
11:45 AM,71.6,69.8,94,30.12,1.5,SW,11.5,19.6,0.38,Rain-Thunderstorm,Heavy Rain,230,2013-08-07 15:45:00
11:53 AM,71.1,68.0,90,30.07,1.0,WSW,13.8,-,0.48,Rain-Thunderstorm,Heavy Rain,240,2013-08-07 15:53:00
11:57 AM,71.6,66.2,83,30.11,1.2,WSW,12.7,19.6,0.03,Rain-Thunderstorm,Heavy Thunderstorms and Rain,240,2013-08-07 15:57:00
12:02 PM,71.6,66.2,83,30.12,2.0,WSW,9.2,19.6,0.04,Rain-Thunderstorm,Thunderstorms and Rain,250,2013-08-07 16:02:00
12:05 PM,69.8,68.0,94,30.12,3.0,SW,8.1,19.6,0.05,Rain-Thunderstorm,Thunderstorms and Rain,230,2013-08-07 16:05:00
12:23 PM,69.8,68.0,94,30.12,2.0,SW,8.1,-,0.13,Rain-Thunderstorm,Thunderstorms and Rain,220,2013-08-07 16:23:00
12:33 PM,69.8,66.2,88,30.12,3.0,SW,4.6,-,0.15,Rain-Thunderstorm,Thunderstorms and Rain,220,2013-08-07 16:33:00
12:53 PM,69.1,66.9,93,30.08,2.5,South,3.5,-,0.21,Rain-Thunderstorm,Thunderstorms and Rain,180,2013-08-07 16:53:00
1:01 PM,69.8,66.2,88,30.12,1.8,Calm,Calm,-,0.03,Rain-Thunderstorm,Thunderstorms and Rain,0,2013-08-07 17:01:00
1:07 PM,69.8,66.2,88,30.12,2.5,SSW,3.5,-,0.04,Rain-Thunderstorm,Rain,200,2013-08-07 17:07:00
1:09 PM,69.8,66.2,88,30.12,3.0,South,5.8,-,0.04,Rain,Light Rain,190,2013-08-07 17:09:00
1:53 PM,70.0,68.0,93,30.06,7.0,Calm,Calm,-,0.12,Rain,Light Rain,0,2013-08-07 17:53:00
2:53 PM,73.0,69.1,87,30.06,10.0,Calm,Calm,-,0.01,Rain,Light Rain,0,2013-08-07 18:53:00
3:46 PM,75.2,69.8,83,30.08,10.0,SE,3.5,-,0.00,,Partly Cloudy,140,2013-08-07 19:46:00
3:53 PM,75.9,71.1,85,30.03,10.0,East,3.5,-,0.00,,Partly Cloudy,100,2013-08-07 19:53:00
4:53 PM,77.0,70.0,79,30.03,10.0,SSE,4.6,-,N/A,,Mostly Cloudy,160,2013-08-07 20:53:00
5:22 PM,77.0,71.6,83,30.07,10.0,ESE,8.1,-,0.01,,Mostly Cloudy,110,2013-08-07 21:22:00
5:53 PM,77.0,70.0,79,30.02,10.0,SE,5.8,-,0.01,,Scattered Clouds,140,2013-08-07 21:53:00
6:53 PM,75.9,70.0,82,30.02,10.0,ESE,5.8,-,N/A,,Partly Cloudy,110,2013-08-07 22:53:00
7:20 PM,75.2,71.6,89,30.07,10.0,SE,4.6,-,N/A,,Mostly Cloudy,130,2013-08-07 23:20:00
7:53 PM,75.0,71.1,87,30.02,9.0,SE,4.6,-,N/A,,Scattered Clouds,130,2013-08-07 23:53:00
8:53 PM,73.0,70.0,90,30.04,10.0,ESE,3.5,-,N/A,,Clear,110,2013-08-08 00:53:00
9:53 PM,73.0,71.1,93,30.04,6.0,East,4.6,-,N/A,,Scattered Clouds,90,2013-08-08 01:53:00
10:03 PM,73.4,71.6,94,30.09,5.0,East,4.6,-,N/A,,Mostly Cloudy,100,2013-08-08 02:03:00
10:53 PM,73.0,71.1,93,30.06,5.0,East,5.8,-,N/A,,Overcast,90,2013-08-08 02:53:00
11:26 PM,71.6,69.8,94,30.10,6.0,East,4.6,-,N/A,,Scattered Clouds,90,2013-08-08 03:26:00
11:53 PM,72.0,70.0,93,30.05,6.0,East,4.6,-,N/A,,Mostly Cloudy,90,2013-08-08 03:53:00